Time;durP1;ratioP1;P1;durP2;ratioP2;P2;SDS_P1;SDS_P2;PMS_P1;PMS_P2;Temp;Humidity;BMP_temperature;BMP_pressure;BME280_temperature;BME280_humidity;BME280_pressure;Samples;Min_cycle;Max_cycle;Signal;HPM_P1;HPM_P2
2021/11/01 00:01:02;;;;;;;5.65;5.03;;;;;;;12.78;71.82;99314.41;5010243;28;20065;-44
2021/11/01 00:03:27;;;;;;;4.80;4.22;;;;;;;12.77;71.56;99304.75;4996851;28;20038;-44
2021/11/01 00:05:53;;;;;;;5.07;4.15;;;;;;;12.76;71.73;99306.53;4994467;28;20134;-45
2021/11/01 00:08:18;;;;;;;4.80;4.32;;;;;;;12.76;71.58;99301.22;4995126;28;20037;-45
2021/11/01 00:10:44;;;;;;;4.93;3.83;;;;;;;12.78;71.81;99314.41;5012453;28;20026;-44
2021/11/01 00:13:09;;;;;;;6.13;5.45;;;;;;;12.76;71.50;99317.09;5010830;28;20034;-44
2021/11/01 00:15:35;;;;;;;7.25;5.75;;;;;;;12.76;71.73;99316.22;4999121;28;20037;-44
2021/11/01 00:18:03;;;;;;;4.72;4.22;;;;;;;12.76;71.62;99310.94;5015505;28;20026;-45
2021/11/01 00:20:29;;;;;;;5.93;4.95;;;;;;;12.75;71.49;99306.59;5008216;28;20022;-45
2021/11/01 00:22:54;;;;;;;6.30;5.63;;;;;;;12.75;71.47;99293.34;5010978;28;20033;-44
2021/11/01 00:25:22;;;;;;;6.22;5.00;;;;;;;12.74;71.54;99302.22;5007591;28;20381;-45
2021/11/01 00:27:48;;;;;;;5.32;4.82;;;;;;;12.74;71.55;99305.72;5004580;28;20521;-45
2021/11/01 00:30:20;;;;;;;6.13;5.43;;;;;;;12.74;71.62;99296.94;5010341;28;20432;-44
2021/11/01 00:32:47;;;;;;;6.22;4.63;;;;;;;12.74;71.65;99311.00;4999919;28;20363;-45
2021/11/01 00:35:12;;;;;;;6.60;5.93;;;;;;;12.74;71.60;99312.81;4999769;28;20034;-44
2021/11/01 00:37:45;;;;;;;5.88;5.25;;;;;;;12.73;71.53;99295.22;5004128;28;20052;-44
2021/11/01 00:40:10;;;;;;;6.45;5.60;;;;;;;12.72;71.43;99299.63;5002618;28;20482;-44
2021/11/01 00:42:36;;;;;;;8.38;5.80;;;;;;;12.72;71.34;99289.06;5008420;28;20033;-45
2021/11/01 00:45:01;;;;;;;5.32;4.82;;;;;;;12.72;71.32;99285.53;4997399;28;20022;-45
2021/11/01 00:47:29;;;;;;;8.48;5.95;;;;;;;12.69;71.35;99287.41;5011656;28;20056;-45
2021/11/01 00:49:55;;;;;;;7.68;6.60;;;;;;;12.70;71.31;99285.59;5000085;28;20398;-45
2021/11/01 00:52:30;;;;;;;6.65;5.85;;;;;;;12.69;71.10;99284.75;5028584;28;20095;-44
2021/11/01 00:55:01;;;;;;;7.68;5.88;;;;;;;12.69;71.51;99290.03;5005463;28;20026;-44
2021/11/01 00:57:27;;;;;;;5.55;5.05;;;;;;;12.67;71.32;99270.72;5008034;28;20083;-44
2021/11/01 00:59:53;;;;;;;6.65;5.70;;;;;;;12.68;71.37;99267.13;5016170;28;20113;-45
2021/11/01 01:02:18;;;;;;;9.70;6.25;;;;;;;12.68;71.42;99267.13;5013733;28;20108;-45
2021/11/01 01:04:44;;;;;;;5.80;5.10;;;;;;;12.66;71.49;99263.72;5011778;28;20110;-45
2021/11/01 01:07:09;;;;;;;7.82;5.90;;;;;;;12.66;71.22;99269.00;4994088;28;20061;-45
2021/11/01 01:09:34;;;;;;;6.45;5.82;;;;;;;12.66;71.28;99258.41;5001612;28;20018;-44
2021/11/01 01:12:00;;;;;;;7.47;6.20;;;;;;;12.66;71.18;99255.78;5033111;28;20029;-44
2021/11/01 01:14:27;;;;;;;5.68;4.63;;;;;;;12.66;71.42;99257.53;5014090;28;20042;-44
2021/11/01 01:16:54;;;;;;;6.85;5.35;;;;;;;12.65;71.18;99248.78;5011509;28;20109;-45
2021/11/01 01:19:22;;;;;;;6.50;5.75;;;;;;;12.65;71.10;99253.19;5004147;28;20466;-44
2021/11/01 01:24:35;;;;;;;7.30;5.03;;;;;;;12.63;71.07;99237.38;5012999;28;20080;-45
2021/11/01 01:27:00;;;;;;;7.70;6.97;;;;;;;12.63;71.18;99245.31;5008789;28;20025;-44
2021/11/01 01:29:26;;;;;;;8.30;6.80;;;;;;;12.63;71.24;99237.38;5010936;28;20101;-44
2021/11/01 01:31:52;;;;;;;7.47;5.22;;;;;;;12.63;71.19;99237.38;5013352;28;20121;-45
2021/11/01 01:34:18;;;;;;;7.10;6.03;;;;;;;12.62;71.40;99234.78;5005101;28;20108;-45
2021/11/01 01:36:45;;;;;;;7.60;6.03;;;;;;;12.62;71.21;99230.38;5012636;28;20108;-45
2021/11/01 01:39:10;;;;;;;6.43;5.75;;;;;;;12.60;71.24;99232.22;5010988;28;20037;-45
2021/11/01 01:41:36;;;;;;;6.60;5.55;;;;;;;12.61;71.04;99227.78;5005134;28;20022;-44
2021/11/01 01:44:02;;;;;;;7.53;6.13;;;;;;;12.61;71.01;99227.78;5011660;28;20030;-44
2021/11/01 01:46:30;;;;;;;7.15;6.45;;;;;;;12.60;71.25;99237.50;5005553;28;20044;-45
2021/11/01 01:48:56;;;;;;;8.57;6.20;;;;;;;12.60;71.09;99232.22;5012394;28;20018;-44
2021/11/01 01:51:25;;;;;;;6.85;6.13;;;;;;;12.59;71.28;99219.91;5012341;28;20061;-44
2021/11/01 01:53:50;;;;;;;7.50;6.20;;;;;;;12.58;71.01;99218.19;4992885;28;20019;-44
2021/11/01 01:56:16;;;;;;;8.20;6.68;;;;;;;12.58;71.21;99220.84;4998692;28;20636;-44
2021/11/01 01:58:54;;;;;;;7.47;6.32;;;;;;;12.57;70.64;99222.63;5012459;28;20022;-44
2021/11/01 02:01:20;;;;;;;8.73;6.55;;;;;;;12.58;71.09;99236.72;5008647;28;20021;-44
2021/11/01 02:03:49;;;;;;;7.65;5.38;;;;;;;12.57;71.13;99227.03;5010623;28;20084;-45
2021/11/01 02:06:21;;;;;;;7.70;5.70;;;;;;;12.57;71.10;99234.97;5002535;28;20033;-44
2021/11/01 02:09:10;;;;;;;7.07;5.97;;;;;;;12.56;71.09;99218.25;4997339;28;20036;-44
2021/11/01 02:11:58;;;;;;;8.73;6.57;;;;;;;12.57;71.07;99219.09;5002345;28;20034;-44
2021/11/01 02:14:27;;;;;;;6.32;5.72;;;;;;;12.56;70.96;99225.31;5011319;28;20129;-44
2021/11/01 02:16:53;;;;;;;7.60;6.40;;;;;;;12.54;70.94;99228.03;5009478;28;20044;-45
2021/11/01 02:19:27;;;;;;;7.70;5.70;;;;;;;12.54;71.06;99228.03;4991465;28;20034;-44
2021/11/01 02:21:59;;;;;;;8.63;6.22;;;;;;;12.52;70.83;99224.59;4994780;28;20034;-44
2021/11/01 02:24:33;;;;;;;7.50;6.78;;;;;;;12.53;70.82;99214.88;5012396;28;20041;-44
2021/11/01 02:26:59;;;;;;;6.68;5.22;;;;;;;12.54;71.02;99213.97;5008725;28;20026;-44
2021/11/01 02:29:26;;;;;;;7.10;6.32;;;;;;;12.53;71.00;99210.44;5007456;28;20117;-45
2021/11/01 02:31:53;;;;;;;6.22;5.25;;;;;;;12.53;70.74;99213.09;5012065;28;20157;-44
2021/11/01 02:34:19;;;;;;;5.90;5.20;;;;;;;12.53;70.82;99212.22;5008662;28;20034;-43
2021/11/01 02:36:45;;;;;;;8.00;6.20;;;;;;;12.51;71.08;99216.72;5002574;28;20026;-44
2021/11/01 02:39:26;;;;;;;8.50;6.07;;;;;;;12.52;71.00;99218.44;5009923;28;20037;-45
2021/11/01 02:41:52;;;;;;;8.88;6.10;;;;;;;12.50;70.88;99221.16;5011858;28;20493;-45
2021/11/01 02:44:21;;;;;;;8.30;6.47;;;;;;;12.49;70.76;99219.44;4984855;28;20073;-45
2021/11/01 02:46:47;;;;;;;7.43;5.65;;;;;;;12.50;70.62;99217.66;4992560;28;20506;-44
2021/11/01 02:49:13;;;;;;;8.30;6.70;;;;;;;12.51;70.54;99222.00;4993580;28;20506;-45
2021/11/01 02:51:40;;;;;;;7.15;6.10;;;;;;;12.49;70.93;99215.91;4998586;28;20029;-44
2021/11/01 02:54:06;;;;;;;8.43;6.53;;;;;;;12.48;70.91;99212.44;5012085;28;20528;-45
2021/11/01 02:56:32;;;;;;;8.02;6.32;;;;;;;12.48;70.60;99215.06;5011427;28;20021;-45
2021/11/01 02:58:57;;;;;;;8.68;6.38;;;;;;;12.49;70.96;99223.84;5012318;28;20038;-45
2021/11/01 03:01:23;;;;;;;6.95;6.28;;;;;;;12.49;70.82;99221.19;4993440;28;20080;-44
2021/11/01 03:03:48;;;;;;;7.63;6.20;;;;;;;12.47;70.61;99225.72;5008928;28;20034;-44
2021/11/01 03:06:22;;;;;;;7.40;6.53;;;;;;;12.47;70.60;99225.72;5004056;28;20554;-43
2021/11/01 03:08:49;;;;;;;10.27;6.53;;;;;;;12.46;70.74;99227.47;4996752;28;20462;-45
2021/11/01 03:11:15;;;;;;;7.47;6.07;;;;;;;12.44;70.77;99227.53;5007791;28;20371;-45
2021/11/01 03:13:40;;;;;;;8.23;5.95;;;;;;;12.45;70.78;99226.59;5005987;28;20092;-45
2021/11/01 03:16:07;;;;;;;7.40;6.28;;;;;;;12.44;70.60;99224.91;5008606;28;20112;-45
2021/11/01 03:19:00;;;;;;;8.88;6.78;;;;;;;12.44;70.88;99232.81;5007337;28;20037;-45
2021/11/01 03:21:28;;;;;;;7.28;5.90;;;;;;;12.43;70.74;99233.75;5003914;28;20062;-44
2021/11/01 03:23:54;;;;;;;8.77;6.25;;;;;;;12.43;70.38;99225.81;5008779;28;20017;-44
2021/11/01 03:26:21;;;;;;;7.57;6.32;;;;;;;12.42;70.47;99229.41;5009435;28;20025;-44
2021/11/01 03:28:52;;;;;;;8.73;6.60;;;;;;;12.42;70.60;99242.63;4997221;28;20063;-45
2021/11/01 03:31:22;;;;;;;;;;;;;;;12.42;70.62;99245.25;5012071;28;20410;-44
2021/11/01 03:33:49;;;;;;;6.07;4.75;;;;;;;12.40;70.51;99255.03;4995366;28;19918;-45
2021/11/01 03:36:15;;;;;;;5.03;4.57;;;;;;;12.42;70.63;99254.97;5001555;28;20033;-44
2021/11/01 03:38:42;;;;;;;6.90;5.18;;;;;;;12.40;70.45;99260.31;5010469;28;20034;-44
2021/11/01 03:41:10;;;;;;;6.63;5.63;;;;;;;12.40;70.79;99260.31;5006174;28;20029;-45
2021/11/01 03:43:43;;;;;;;6.82;5.53;;;;;;;12.39;70.68;99255.97;5007121;28;20033;-44
2021/11/01 03:46:10;;;;;;;7.25;5.15;;;;;;;12.40;70.44;99252.38;5011545;28;20114;-44
2021/11/01 03:48:38;;;;;;;7.72;6.32;;;;;;;12.39;70.49;99255.09;5009626;28;20387;-44
2021/11/01 03:51:10;;;;;;;6.95;5.45;;;;;;;12.40;70.41;99272.66;4999104;28;20398;-44
2021/11/01 03:53:36;;;;;;;8.95;6.00;;;;;;;12.39;70.37;99265.66;5000075;28;20026;-44
2021/11/01 03:56:02;;;;;;;7.82;6.32;;;;;;;12.39;70.24;99266.53;5000461;28;20101;-45
2021/11/01 03:58:28;;;;;;;7.80;6.18;;;;;;;12.39;70.52;99265.66;5000376;28;20721;-44
2021/11/01 04:00:56;;;;;;;7.35;5.63;;;;;;;12.39;70.57;99276.25;5007401;28;20061;-44
2021/11/01 04:03:25;;;;;;;6.47;5.50;;;;;;;12.38;70.63;99275.41;5011077;28;20028;-44
2021/11/01 04:05:56;;;;;;;6.63;5.40;;;;;;;12.37;70.48;99273.66;4993797;28;20037;-45
2021/11/01 04:08:21;;;;;;;8.57;6.47;;;;;;;12.38;70.62;99274.53;4992444;28;20023;-45
2021/11/01 04:10:48;;;;;;;9.27;6.38;;;;;;;12.38;70.53;99274.53;4999595;28;20119;-45
2021/11/01 04:13:13;;;;;;;7.10;5.78;;;;;;;12.36;70.19;99282.50;5011063;28;20057;-44
2021/11/01 04:15:44;;;;;;;6.78;5.25;;;;;;;12.38;70.31;99291.25;5009393;28;20105;-44
2021/11/01 04:18:12;;;;;;;6.30;4.93;;;;;;;12.37;70.55;99294.81;4996702;28;20449;-45
2021/11/01 04:23:06;;;;;;;6.93;5.88;;;;;;;12.36;70.30;99303.66;5011271;28;20030;-44
2021/11/01 04:25:32;;;;;;;5.88;4.65;;;;;;;12.35;70.64;99301.94;5002243;28;20022;-44
2021/11/01 04:28:00;;;;;;;6.70;4.85;;;;;;;12.35;70.21;99311.66;5010081;28;20018;-44
2021/11/01 04:30:27;;;;;;;6.43;5.18;;;;;;;12.35;70.37;99311.66;5012683;28;20030;-45
2021/11/01 04:32:59;;;;;;;6.63;5.68;;;;;;;12.35;70.57;99311.66;5013126;28;20044;-45
2021/11/01 04:35:33;;;;;;;6.82;5.60;;;;;;;12.34;70.55;99313.41;5006477;28;20034;-44
2021/11/01 04:38:05;;;;;;;7.07;5.20;;;;;;;12.33;70.32;99319.63;5007308;28;20030;-44
2021/11/01 04:43:21;;;;;;;5.72;4.32;;;;;;;12.34;70.46;99326.63;5006740;28;20026;-45
2021/11/01 04:53:58;;;;;;;5.57;4.82;;;;;;;12.31;70.15;99306.47;5011698;28;20478;-44
2021/11/01 04:56:25;;;;;;;6.75;5.72;;;;;;;12.31;70.53;99317.03;5000640;28;20033;-45
2021/11/01 04:58:55;;;;;;;4.80;4.32;;;;;;;12.31;70.14;99318.84;5004764;28;20161;-44
2021/11/01 05:01:40;;;;;;;6.40;5.65;;;;;;;12.31;70.52;99314.41;4997054;28;20022;-44
2021/11/01 05:04:09;;;;;;;6.47;5.13;;;;;;;12.30;70.35;99309.19;5007853;28;20042;-44
2021/11/01 05:06:36;;;;;;;6.57;4.88;;;;;;;12.30;70.13;99306.53;5003942;28;20101;-45
2021/11/01 05:09:07;;;;;;;6.35;4.60;;;;;;;12.29;70.31;99315.38;5001008;28;20068;-45
2021/11/01 05:14:05;;;;;;;5.38;4.68;;;;;;;12.29;70.34;99320.69;5004993;28;20034;-45
2021/11/01 05:19:26;;;;;;;5.20;4.13;;;;;;;12.28;70.14;99316.31;5001186;28;20072;-45
2021/11/01 05:22:20;;;;;;;5.65;5.13;;;;;;;12.27;70.28;99319.88;5004724;28;20029;-45
2021/11/01 05:24:45;;;;;;;5.28;4.18;;;;;;;12.27;70.41;99317.25;4999456;28;20073;-46
2021/11/01 05:29:41;;;;;;;5.07;4.57;;;;;;;12.27;70.14;99333.94;5011945;28;20018;-45
2021/11/01 05:32:13;;;;;;;6.20;5.00;;;;;;;12.27;70.14;99339.25;5005758;28;20105;-45
2021/11/01 05:34:38;;;;;;;6.43;4.85;;;;;;;12.27;70.42;99346.31;5012809;28;20161;-44
2021/11/01 05:37:04;;;;;;;6.75;5.88;;;;;;;12.27;70.31;99343.69;5009710;28;20033;-44
2021/11/01 05:39:30;;;;;;;5.68;4.38;;;;;;;12.26;70.30;99341.94;5010342;28;20041;-45
2021/11/01 05:41:55;;;;;;;6.75;4.80;;;;;;;12.25;70.17;99353.44;5001609;28;20053;-44
2021/11/01 05:44:20;;;;;;;6.25;5.70;;;;;;;12.24;70.13;99349.91;5005391;28;20034;-45
2021/11/01 05:46:50;;;;;;;7.22;4.82;;;;;;;12.24;70.15;99357.84;5002371;28;20475;-43
2021/11/01 05:49:18;;;;;;;6.20;4.80;;;;;;;12.25;70.31;99356.06;5000697;28;20525;-45
2021/11/01 05:51:43;;;;;;;6.50;4.68;;;;;;;12.24;70.17;99349.06;5002141;28;20034;-45
2021/11/01 05:54:15;;;;;;;5.65;4.82;;;;;;;12.25;70.34;99350.78;4999976;28;20113;-44
2021/11/01 06:10:38;;;;;;;5.07;4.47;;;;;;;12.22;70.22;99350.91;4956786;28;20055;-44
2021/11/01 06:15:47;;;;;;;4.53;4.07;;;;;;;12.20;70.34;99356.25;4998971;28;20032;-44
2021/11/01 06:18:13;;;;;;;7.10;5.20;;;;;;;12.20;70.16;99361.53;4999861;28;20022;-44
2021/11/01 06:20:39;;;;;;;5.63;5.07;;;;;;;12.21;69.82;99368.56;5005490;28;20042;-45
2021/11/01 06:23:04;;;;;;;6.57;5.95;;;;;;;12.21;70.08;99371.19;5008288;28;20038;-45
2021/11/01 06:25:30;;;;;;;5.00;4.40;;;;;;;12.21;70.33;99378.25;5012094;28;20021;-44
2021/11/01 06:27:55;;;;;;;5.38;4.43;;;;;;;12.19;69.99;99384.47;5010253;28;20014;-45
2021/11/01 06:30:31;;;;;;;4.95;4.03;;;;;;;12.21;70.24;99388.84;5012490;28;20108;-44
2021/11/01 06:41:05;;;;;;;4.80;4.13;;;;;;;12.18;69.94;99416.25;4992650;28;20414;-44
2021/11/01 06:52:03;;;;;;;6.15;4.68;;;;;;;12.17;70.20;99433.03;4992422;28;20749;-44
2021/11/01 08:35:39;;;;;;;2.67;2.17;;;;;;;12.05;70.26;99598.13;5003644;28;20068;-43
2021/11/01 09:20:28;;;;;;;1.52;1.42;;;;;;;12.01;70.29;99589.41;5007300;28;20076;-45
2021/11/01 09:23:39;;;;;;;1.65;1.55;;;;;;;12.00;70.41;99581.56;4996638;28;20489;-44
2021/11/01 09:28:38;;;;;;;2.13;1.63;;;;;;;12.02;70.44;99579.72;5009156;28;20116;-45
2021/11/01 09:36:36;;;;;;;1.58;1.00;;;;;;;12.00;70.27;99574.50;4999732;28;20037;-44
2021/11/01 09:39:21;;;;;;;2.28;1.63;;;;;;;12.00;70.45;99585.06;5004738;28;20122;-44
2021/11/01 09:41:46;;;;;;;2.80;1.90;;;;;;;12.01;70.23;99596.50;4994519;28;20034;-44
2021/11/01 09:44:15;;;;;;;1.08;1.02;;;;;;;12.01;70.16;99596.50;4997563;28;20036;-44
2021/11/01 09:46:54;;;;;;;2.22;2.00;;;;;;;12.02;70.30;99606.16;5008860;28;20026;-44
2021/11/01 09:49:20;;;;;;;1.70;1.13;;;;;;;12.01;70.07;99601.78;4998508;28;20030;-43
2021/11/01 09:51:50;;;;;;;1.33;1.23;;;;;;;12.01;70.26;99601.78;5007715;28;20032;-44
2021/11/01 09:54:23;;;;;;;1.67;1.40;;;;;;;12.01;70.38;99588.56;5012882;28;20038;-44
2021/11/01 09:56:59;;;;;;;1.42;1.33;;;;;;;12.01;70.53;99593.88;5001055;28;20026;-44
2021/11/01 09:59:26;;;;;;;1.33;1.15;;;;;;;12.02;70.12;99600.88;5008367;28;20030;-44
2021/11/01 10:01:56;;;;;;;1.40;1.10;;;;;;;12.01;70.30;99600.00;5004861;28;20027;-44
2021/11/01 10:04:25;;;;;;;1.58;1.48;;;;;;;12.01;70.24;99602.63;5003062;28;20026;-44
2021/11/01 10:07:13;;;;;;;1.60;1.33;;;;;;;12.03;70.26;99607.88;5012227;28;20025;-44
2021/11/01 10:09:56;;;;;;;1.45;1.35;;;;;;;12.02;70.54;99595.59;4996890;28;20386;-44
2021/11/01 10:12:30;;;;;;;1.23;1.15;;;;;;;12.02;70.69;99592.94;5006534;28;20018;-44
2021/11/01 10:18:05;;;;;;;0.95;0.95;;;;;;;12.01;70.34;99584.13;5014282;28;20515;-44
2021/11/01 10:20:32;;;;;;;1.20;0.68;;;;;;;12.01;70.53;99588.56;5031636;28;20025;-44
2021/11/01 10:23:01;;;;;;;1.35;1.25;;;;;;;12.02;70.63;99590.31;5015763;28;20025;-44
2021/11/01 10:25:26;;;;;;;1.30;1.30;;;;;;;12.01;70.59;99588.56;5006796;28;20496;-44
2021/11/01 10:28:02;;;;;;;1.75;1.65;;;;;;;12.01;70.38;99594.72;4995769;28;20023;-44
2021/11/01 10:30:30;;;;;;;1.27;1.17;;;;;;;12.02;70.66;99590.31;4992454;28;20101;-44
2021/11/01 10:32:59;;;;;;;1.90;1.63;;;;;;;12.01;70.66;99591.22;4997614;28;20033;-45
2021/11/01 10:35:43;;;;;;;1.48;1.20;;;;;;;12.02;70.58;99595.59;4998606;28;20025;-44
2021/11/01 10:38:18;;;;;;;0.63;0.63;;;;;;;12.02;70.90;99595.59;5001028;28;21696;-45
2021/11/01 10:40:50;;;;;;;0.80;0.80;;;;;;;12.02;70.75;99596.47;5006810;28;20029;-44
2021/11/01 11:14:01;;;;;;;1.88;1.77;;;;;;;12.01;71.21;99517.22;5010404;28;20036;-44
2021/11/01 11:32:24;;;;;;;1.27;1.17;;;;;;;12.00;71.02;99542.78;4993123;28;20033;-44
2021/11/01 11:49:03;;;;;;;0.75;0.73;;;;;;;12.00;71.24;99547.22;4998847;28;20045;-45
2021/11/01 11:51:28;;;;;;;0.63;0.60;;;;;;;12.00;71.20;99558.63;5000499;28;20022;-45
2021/11/01 11:53:57;;;;;;;1.92;1.73;;;;;;;12.00;71.29;99550.72;4996931;28;20498;-45
2021/11/01 11:56:31;;;;;;;1.52;1.20;;;;;;;12.01;71.08;99546.28;5005920;28;20029;-45
2021/11/01 11:59:06;;;;;;;1.05;0.90;;;;;;;12.01;71.11;99546.28;5003434;28;20037;-44
2021/11/01 12:01:36;;;;;;;0.85;0.73;;;;;;;12.01;71.15;99546.28;5008893;28;20026;-45
2021/11/01 12:04:18;;;;;;;0.85;0.80;;;;;;;12.02;71.35;99558.59;5004091;28;20036;-44
2021/11/01 12:07:00;;;;;;;1.13;1.02;;;;;;;12.00;71.38;99556.00;5001351;28;20564;-44
2021/11/01 12:09:51;;;;;;;0.98;0.88;;;;;;;11.99;71.55;99554.28;5009017;28;20033;-44
2021/11/01 12:17:40;;;;;;;1.27;1.17;;;;;;;12.02;71.07;99545.38;5000349;28;20025;-44
2021/11/01 12:20:09;;;;;;;0.93;0.88;;;;;;;12.01;71.21;99546.28;4991495;28;20034;-44
2021/11/01 12:22:44;;;;;;;1.45;1.30;;;;;;;12.01;71.25;99541.84;4993135;28;20026;-44
2021/11/01 12:25:15;;;;;;;2.10;1.10;;;;;;;12.02;71.45;99534.81;4991675;28;20458;-44
2021/11/01 12:27:43;;;;;;;1.50;1.15;;;;;;;12.01;71.54;99538.38;4994269;28;20074;-44
2021/11/01 12:30:11;;;;;;;2.38;1.80;;;;;;;12.02;71.53;99537.44;4999816;28;20482;-44
2021/11/01 12:32:38;;;;;;;1.05;0.95;;;;;;;12.01;71.64;99536.56;5010010;28;20757;-44
2021/11/01 12:35:07;;;;;;;1.70;1.42;;;;;;;12.02;71.55;99526.88;5013074;28;20034;-44
2021/11/01 12:37:36;;;;;;;1.15;1.05;;;;;;;12.01;71.59;99531.28;5007337;28;20037;-44
2021/11/01 12:42:58;;;;;;;1.23;1.05;;;;;;;12.02;71.51;99511.03;5002224;28;20033;-44
2021/11/01 12:48:34;;;;;;;1.60;1.30;;;;;;;12.02;71.52;99511.03;5004503;28;20026;-44
2021/11/01 12:57:03;;;;;;;0.95;0.75;;;;;;;12.02;71.56;99500.44;5007317;28;20065;-45
2021/11/01 12:59:37;;;;;;;1.35;1.25;;;;;;;12.01;71.57;99504.00;4999175;28;20026;-44
2021/11/01 13:02:03;;;;;;;0.77;0.77;;;;;;;12.01;71.41;99509.31;4995934;28;20109;-44
2021/11/01 13:04:36;;;;;;;1.23;1.20;;;;;;;12.01;71.59;99510.16;5008747;28;20187;-44
2021/11/01 13:09:34;;;;;;;1.77;1.67;;;;;;;12.01;71.32;99509.31;4998253;28;20037;-45
2021/11/01 13:12:30;;;;;;;0.80;0.80;;;;;;;12.01;71.43;99509.31;5012471;28;20513;-44
2021/11/01 13:18:07;;;;;;;1.52;1.38;;;;;;;12.01;71.59;99499.56;4996043;28;20032;-45
2021/11/01 13:20:35;;;;;;;1.02;0.90;;;;;;;12.01;71.58;99506.66;4996708;28;20486;-45
2021/11/01 13:23:01;;;;;;;1.17;1.17;;;;;;;12.01;71.79;99501.38;4994132;28;20105;-45
2021/11/01 13:25:42;;;;;;;1.00;0.90;;;;;;;12.01;71.80;99504.84;4997753;28;20475;-45
2021/11/01 13:36:26;;;;;;;1.73;0.98;;;;;;;12.02;71.73;99497.81;5004740;28;20087;-45
2021/11/01 13:38:56;;;;;;;1.25;1.08;;;;;;;12.01;71.90;99504.84;5001497;28;20044;-45
2021/11/01 13:41:29;;;;;;;1.35;1.25;;;;;;;12.01;71.80;99504.84;4998237;28;20078;-45
2021/11/01 13:44:14;;;;;;;1.48;1.27;;;;;;;12.01;71.57;99499.56;4998695;28;20022;-45
2021/11/01 13:46:44;;;;;;;1.05;0.95;;;;;;;12.01;71.61;99504.00;5005878;28;20104;-45
2021/11/01 13:49:10;;;;;;;1.98;1.35;;;;;;;12.01;71.54;99510.16;5001084;28;20026;-44
2021/11/01 13:51:36;;;;;;;0.82;0.80;;;;;;;12.02;71.56;99516.31;5004025;28;20300;-44
2021/11/01 13:56:49;;;;;;;1.30;1.20;;;;;;;12.00;71.68;99524.28;4992952;28;20098;-45
2021/11/01 14:13:16;;;;;;;0.73;0.70;;;;;;;12.00;71.90;99507.59;5003793;28;20091;-46
2021/11/01 14:30:22;;;;;;;1.48;1.20;;;;;;;11.99;71.94;99493.50;5003237;28;20406;-44
2021/11/01 14:32:34;;;;;;;0.70;0.68;;;;;;;11.99;71.62;99492.63;4989641;28;20046;-45
2021/11/01 14:57:40;;;;;;;3.97;2.85;;;;;;;11.79;75.10;99478.31;5001962;28;20095;-43
2021/11/01 15:06:15;;;;;;;3.47;3.17;;;;;;;11.77;75.07;99469.59;5001247;28;20095;-43
2021/11/01 15:16:20;;;;;;;4.32;2.80;;;;;;;11.73;74.94;99481.13;4984116;28;20069;-41
2021/11/01 15:21:25;;;;;;;3.70;2.65;;;;;;;11.76;74.62;99533.88;4994779;28;20184;-41
2021/11/01 15:24:07;;;;;;;3.27;2.50;;;;;;;11.75;74.32;99513.66;5001247;28;20735;-42
2021/11/01 16:17:45;;;;;;;4.32;3.03;;;;;;;11.77;73.34;99501.28;4995073;28;20033;-43
2021/11/01 16:20:11;;;;;;;4.22;3.25;;;;;;;11.75;73.06;99488.13;5000332;28;20125;-43
2021/11/01 16:22:41;;;;;;;4.10;3.08;;;;;;;11.76;73.07;99494.25;5000443;28;20105;-43
2021/11/01 16:25:07;;;;;;;3.22;2.95;;;;;;;11.75;73.36;99495.19;4997021;28;20485;-43
2021/11/01 16:27:33;;;;;;;3.05;2.72;;;;;;;11.74;73.21;99502.22;5005056;28;20030;-43
2021/11/01 16:30:09;;;;;;;3.80;3.10;;;;;;;11.75;73.17;99511.03;5005472;28;20371;-43
2021/11/01 16:32:42;;;;;;;4.15;2.97;;;;;;;11.75;72.96;99513.66;5009329;28;20030;-43
2021/11/01 16:35:08;;;;;;;3.05;2.83;;;;;;;11.74;72.99;99509.31;4995046;28;20022;-43
2021/11/01 16:40:09;;;;;;;2.88;2.67;;;;;;;11.74;72.96;99481.09;5003802;28;20030;-43
2021/11/01 16:42:39;;;;;;;2.95;2.53;;;;;;;11.73;73.08;99494.34;5005298;28;20613;-43
2021/11/01 16:48:12;;;;;;;3.13;2.85;;;;;;;11.71;73.23;99491.78;4965743;28;20035;-43
2021/11/01 16:50:38;;;;;;;3.40;2.72;;;;;;;11.71;72.88;99497.06;4999060;28;20129;-43
2021/11/01 16:53:04;;;;;;;3.88;3.08;;;;;;;11.72;73.04;99497.91;4997931;28;20434;-43
2021/11/01 16:55:35;;;;;;;3.35;2.95;;;;;;;11.71;72.91;99501.47;5005537;28;20033;-43
2021/11/01 16:58:12;;;;;;;3.42;2.50;;;;;;;11.72;72.96;99508.47;4991074;28;20034;-43
2021/11/01 17:00:44;;;;;;;3.78;2.83;;;;;;;11.71;73.00;99512.03;5006494;28;20538;-43
2021/11/01 17:06:09;;;;;;;4.57;2.80;;;;;;;11.68;73.12;99513.00;5010088;28;20034;-43
2021/11/01 17:09:14;;;;;;;3.72;2.72;;;;;;;11.68;73.12;99527.06;5011441;28;20030;-43
2021/11/01 17:22:54;;;;;;;2.70;2.50;;;;;;;11.65;73.13;99498.13;4996107;28;20402;-43
2021/11/01 17:25:32;;;;;;;2.92;2.72;;;;;;;11.65;73.25;99498.13;4993430;28;20347;-42
2021/11/01 18:51:03;;;;;;;2.95;2.58;;;;;;;11.59;72.62;99539.69;5004572;28;20036;-42
2021/11/01 18:53:42;;;;;;;2.50;2.30;;;;;;;11.58;72.69;99532.69;5002494;28;20026;-43
2021/11/01 18:56:09;;;;;;;2.65;2.45;;;;;;;11.57;72.64;99537.09;4994272;28;20076;-43
2021/11/01 18:58:38;;;;;;;2.92;2.40;;;;;;;11.58;72.49;99533.56;5004236;28;20053;-44
2021/11/01 19:01:08;;;;;;;3.10;2.80;;;;;;;11.57;72.77;99534.47;4999815;28;20038;-44
2021/11/01 19:03:39;;;;;;;2.55;2.20;;;;;;;11.57;72.72;99531.81;5000856;28;20628;-44
2021/11/01 20:06:48;;;;;;;2.15;1.95;;;;;;;11.51;72.84;99527.59;4994468;28;20026;-43
2021/11/01 20:14:33;;;;;;;3.35;2.05;;;;;;;11.50;72.52;99525.00;4998366;28;20037;-43
2021/11/01 21:25:51;;;;;;;2.28;2.08;;;;;;;11.42;72.47;99517.34;5008670;28;20069;-44
2021/11/01 21:28:17;;;;;;;2.55;2.35;;;;;;;11.43;72.45;99524.34;5000508;28;20088;-43
2021/11/01 21:30:42;;;;;;;3.05;2.40;;;;;;;11.42;72.69;99520.84;5005714;28;20030;-44
2021/11/01 21:33:09;;;;;;;2.22;2.03;;;;;;;11.42;72.57;99518.22;5013140;28;20500;-43
2021/11/01 21:35:42;;;;;;;2.60;2.40;;;;;;;11.41;72.50;99511.19;5006583;28;20109;-43
2021/11/01 21:38:07;;;;;;;2.92;2.17;;;;;;;11.41;72.55;99508.53;4999534;28;20425;-43
2021/11/01 21:40:33;;;;;;;2.28;2.08;;;;;;;11.41;72.62;99494.50;5000602;28;20055;-43
2021/11/01 21:42:58;;;;;;;3.38;2.20;;;;;;;11.40;72.60;99498.91;5002394;28;20033;-43
2021/11/01 21:45:23;;;;;;;2.22;2.03;;;;;;;11.41;72.43;99499.78;5011026;28;20045;-43
2021/11/01 21:47:49;;;;;;;3.25;2.90;;;;;;;11.41;72.37;99505.06;5002519;28;20228;-43
2021/11/01 21:50:15;;;;;;;2.65;2.20;;;;;;;11.41;72.53;99499.78;5001956;28;20394;-43
2021/11/01 21:52:43;;;;;;;3.22;2.03;;;;;;;11.40;72.44;99498.91;5001848;28;20030;-43
2021/11/01 21:55:09;;;;;;;3.05;2.50;;;;;;;11.39;72.62;99497.19;5002495;28;20121;-44
2021/11/01 21:57:42;;;;;;;3.83;2.65;;;;;;;11.39;72.55;99491.91;5003521;28;20116;-44
2021/11/01 22:00:20;;;;;;;3.00;2.20;;;;;;;11.40;72.54;99498.03;4999256;28;20030;-44
2021/11/01 22:20:03;;;;;;;2.63;2.42;;;;;;;11.36;72.42;99475.28;4981135;28;20046;-42
2021/11/01 22:33:36;;;;;;;2.45;2.25;;;;;;;11.34;72.55;99456.00;4993403;28;20668;-43
2021/11/01 22:41:42;;;;;;;2.90;2.65;;;;;;;11.30;72.45;99449.94;4970133;28;20043;-42
2021/11/01 22:57:28;;;;;;;2.80;2.25;;;;;;;11.32;72.46;99418.22;4992564;28;20125;-41
2021/11/01 22:59:53;;;;;;;3.10;2.65;;;;;;;11.29;72.67;99420.06;4997238;28;20112;-42
2021/11/01 23:02:19;;;;;;;3.65;2.80;;;;;;;11.31;72.53;99421.78;4999006;28;20060;-43
2021/11/01 23:31:38;;;;;;;2.67;2.38;;;;;;;11.26;72.19;99406.09;5010370;28;20062;-43
2021/11/01 23:34:09;;;;;;;2.83;2.60;;;;;;;11.27;72.58;99402.56;5001369;28;20034;-43
2021/11/01 23:36:34;;;;;;;2.72;2.53;;;;;;;11.27;72.55;99394.63;4995728;28;20049;-43
2021/11/01 23:39:02;;;;;;;2.58;2.38;;;;;;;11.26;72.31;99395.53;5005475;28;20398;-43
2021/11/01 23:41:27;;;;;;;2.58;2.28;;;;;;;11.26;72.16;99396.41;5014423;28;20033;-43
2021/11/01 23:43:53;;;;;;;2.65;2.45;;;;;;;11.26;72.44;99390.25;5014907;28;20026;-44
2021/11/01 23:46:18;;;;;;;2.47;2.28;;;;;;;11.26;72.45;99387.59;5012162;28;20026;-43
2021/11/01 23:48:44;;;;;;;4.28;2.50;;;;;;;11.25;72.12;99384.13;5013656;28;20045;-43
2021/11/01 23:51:11;;;;;;;2.53;2.33;;;;;;;11.25;72.38;99385.88;5003039;28;20023;-43
2021/11/01 23:56:06;;;;;;;3.80;2.50;;;;;;;11.24;72.46;99381.53;4995532;28;20030;-43
2021/11/01 23:58:33;;;;;;;3.60;2.40;;;;;;;11.24;72.16;99376.25;5003451;28;20056;-44
